sensor_id;sensor_type;location;lat;lon;timestamp;pressure;altitude;pressure_sealevel;temperature;humidity
19114;BME280;9689;51.052;13.772;2023-01-25T00:04:46;102414.41;;;1.91;84.99
19114;BME280;9689;51.052;13.772;2023-01-25T00:09:48;102412.25;;;1.83;85.00
19114;BME280;9689;51.052;13.772;2023-01-25T00:14:48;102406.59;;;1.90;84.65
19114;BME280;9689;51.052;13.772;2023-01-25T00:19:49;102407.28;;;2.04;84.13
19114;BME280;9689;51.052;13.772;2023-01-25T00:24:52;102399.06;;;2.11;84.04
19114;BME280;9689;51.052;13.772;2023-01-25T00:29:53;102400.00;;;2.13;84.31
19114;BME280;9689;51.052;13.772;2023-01-25T00:34:54;102407.56;;;2.10;83.97
19114;BME280;9689;51.052;13.772;2023-01-25T00:39:56;102404.13;;;2.09;83.81
19114;BME280;9689;51.052;13.772;2023-01-25T00:44:57;102398.00;;;2.07;83.42
19114;BME280;9689;51.052;13.772;2023-01-25T00:49:57;102402.69;;;1.98;83.29
19114;BME280;9689;51.052;13.772;2023-01-25T00:54:59;102399.94;;;1.93;83.86
19114;BME280;9689;51.052;13.772;2023-01-25T01:00:00;102400.50;;;2.06;83.56
19114;BME280;9689;51.052;13.772;2023-01-25T01:05:01;102393.59;;;2.05;83.38
19114;BME280;9689;51.052;13.772;2023-01-25T01:10:06;102392.66;;;2.03;83.49
19114;BME280;9689;51.052;13.772;2023-01-25T01:15:08;102386.47;;;1.99;82.94
19114;BME280;9689;51.052;13.772;2023-01-25T01:20:10;102381.69;;;2.07;82.88
19114;BME280;9689;51.052;13.772;2023-01-25T01:25:12;102378.63;;;2.14;82.70
19114;BME280;9689;51.052;13.772;2023-01-25T01:30:13;102373.97;;;2.07;82.75
19114;BME280;9689;51.052;13.772;2023-01-25T01:35:14;102368.25;;;2.12;82.88
19114;BME280;9689;51.052;13.772;2023-01-25T01:40:16;102354.59;;;2.13;82.85
19114;BME280;9689;51.052;13.772;2023-01-25T01:45:49;102350.47;;;1.99;82.84
19114;BME280;9689;51.052;13.772;2023-01-25T01:51:00;102333.59;;;2.04;82.63
19114;BME280;9689;51.052;13.772;2023-01-25T01:56:06;102328.66;;;2.09;83.15
19114;BME280;9689;51.052;13.772;2023-01-25T02:01:08;102326.09;;;2.09;82.82
19114;BME280;9689;51.052;13.772;2023-01-25T02:06:12;102326.63;;;2.02;82.93
19114;BME280;9689;51.052;13.772;2023-01-25T02:11:15;102325.19;;;2.08;82.72
19114;BME280;9689;51.052;13.772;2023-01-25T02:16:26;102319.78;;;2.02;82.42
19114;BME280;9689;51.052;13.772;2023-01-25T02:21:34;102319.53;;;1.97;82.83
19114;BME280;9689;51.052;13.772;2023-01-25T02:26:39;102297.78;;;1.91;83.00
19114;BME280;9689;51.052;13.772;2023-01-25T02:31:43;102297.59;;;2.04;82.89
19114;BME280;9689;51.052;13.772;2023-01-25T02:36:44;102304.41;;;2.04;82.84
19114;BME280;9689;51.052;13.772;2023-01-25T02:41:46;102293.91;;;1.99;82.79
19114;BME280;9689;51.052;13.772;2023-01-25T02:46:48;102285.25;;;1.97;83.22
19114;BME280;9689;51.052;13.772;2023-01-25T02:51:50;102279.81;;;1.91;82.75
19114;BME280;9689;51.052;13.772;2023-01-25T02:56:56;102272.03;;;1.89;83.17
19114;BME280;9689;51.052;13.772;2023-01-25T03:02:00;102262.72;;;1.91;83.15
19114;BME280;9689;51.052;13.772;2023-01-25T03:07:02;102265.00;;;1.85;83.42
19114;BME280;9689;51.052;13.772;2023-01-25T03:12:05;102268.50;;;1.87;83.33
19114;BME280;9689;51.052;13.772;2023-01-25T03:17:06;102271.31;;;1.92;82.72
19114;BME280;9689;51.052;13.772;2023-01-25T03:22:07;102273.13;;;1.94;83.03
19114;BME280;9689;51.052;13.772;2023-01-25T03:27:10;102263.78;;;1.96;82.86
19114;BME280;9689;51.052;13.772;2023-01-25T03:32:16;102267.25;;;1.97;82.65
19114;BME280;9689;51.052;13.772;2023-01-25T03:37:17;102261.34;;;1.99;82.39
19114;BME280;9689;51.052;13.772;2023-01-25T03:42:21;102260.88;;;1.89;82.51
19114;BME280;9689;51.052;13.772;2023-01-25T03:47:26;102264.19;;;1.86;82.74
19114;BME280;9689;51.052;13.772;2023-01-25T03:52:28;102253.84;;;1.85;83.17
19114;BME280;9689;51.052;13.772;2023-01-25T03:57:37;102256.59;;;1.89;82.87
19114;BME280;9689;51.052;13.772;2023-01-25T04:02:41;102258.34;;;1.90;83.17
19114;BME280;9689;51.052;13.772;2023-01-25T04:07:45;102249.06;;;1.92;82.98
19114;BME280;9689;51.052;13.772;2023-01-25T04:12:51;102245.59;;;1.92;83.24
19114;BME280;9689;51.052;13.772;2023-01-25T04:17:52;102240.03;;;1.83;83.15
19114;BME280;9689;51.052;13.772;2023-01-25T04:22:55;102239.72;;;1.94;83.00
19114;BME280;9689;51.052;13.772;2023-01-25T04:28:04;102233.69;;;1.94;83.34
19114;BME280;9689;51.052;13.772;2023-01-25T04:33:05;102238.66;;;1.91;83.43
19114;BME280;9689;51.052;13.772;2023-01-25T04:38:06;102245.81;;;1.79;83.19
19114;BME280;9689;51.052;13.772;2023-01-25T04:43:13;102237.59;;;1.86;83.19
19114;BME280;9689;51.052;13.772;2023-01-25T04:48:15;102244.44;;;1.85;83.14
19114;BME280;9689;51.052;13.772;2023-01-25T04:53:22;102242.59;;;1.83;83.68
19114;BME280;9689;51.052;13.772;2023-01-25T04:58:24;102235.03;;;1.86;83.78
19114;BME280;9689;51.052;13.772;2023-01-25T05:03:25;102230.69;;;1.85;83.42
19114;BME280;9689;51.052;13.772;2023-01-25T05:08:26;102230.69;;;1.85;83.46
19114;BME280;9689;51.052;13.772;2023-01-25T05:13:33;102227.03;;;1.80;83.50
19114;BME280;9689;51.052;13.772;2023-01-25T05:19:00;102231.56;;;1.85;82.39
19114;BME280;9689;51.052;13.772;2023-01-25T05:24:08;102228.50;;;1.75;83.15
19114;BME280;9689;51.052;13.772;2023-01-25T05:29:11;102226.06;;;1.78;83.02
19114;BME280;9689;51.052;13.772;2023-01-25T05:34:21;102223.56;;;1.79;83.41
19114;BME280;9689;51.052;13.772;2023-01-25T05:39:22;102212.28;;;1.76;83.76
19114;BME280;9689;51.052;13.772;2023-01-25T05:44:26;102204.94;;;1.83;82.82
19114;BME280;9689;51.052;13.772;2023-01-25T05:49:27;102202.06;;;1.77;83.18
19114;BME280;9689;51.052;13.772;2023-01-25T05:54:28;102196.56;;;1.69;83.27
19114;BME280;9689;51.052;13.772;2023-01-25T05:59:36;102196.78;;;1.74;83.17
19114;BME280;9689;51.052;13.772;2023-01-25T06:04:40;102195.88;;;1.74;83.54
19114;BME280;9689;51.052;13.772;2023-01-25T06:09:42;102194.59;;;1.64;83.82
19114;BME280;9689;51.052;13.772;2023-01-25T06:14:44;102194.75;;;1.67;83.22
19114;BME280;9689;51.052;13.772;2023-01-25T06:19:45;102189.88;;;1.73;82.75
19114;BME280;9689;51.052;13.772;2023-01-25T06:25:07;102195.16;;;1.76;82.51
19114;BME280;9689;51.052;13.772;2023-01-25T06:30:10;102184.72;;;1.73;82.40
19114;BME280;9689;51.052;13.772;2023-01-25T06:35:11;102194.22;;;1.74;82.72
19114;BME280;9689;51.052;13.772;2023-01-25T06:40:12;102187.47;;;1.76;82.97
19114;BME280;9689;51.052;13.772;2023-01-25T06:45:14;102185.03;;;1.79;82.69
19114;BME280;9689;51.052;13.772;2023-01-25T06:50:15;102187.06;;;1.49;83.71
19114;BME280;9689;51.052;13.772;2023-01-25T06:55:15;102187.16;;;1.70;82.74
19114;BME280;9689;51.052;13.772;2023-01-25T07:00:18;102184.47;;;1.67;83.18
19114;BME280;9689;51.052;13.772;2023-01-25T07:05:19;102181.91;;;1.67;83.12
19114;BME280;9689;51.052;13.772;2023-01-25T07:10:20;102184.41;;;1.48;83.83
19114;BME280;9689;51.052;13.772;2023-01-25T07:15:22;102162.75;;;1.60;83.01
19114;BME280;9689;51.052;13.772;2023-01-25T07:20:23;102156.03;;;1.64;82.24
19114;BME280;9689;51.052;13.772;2023-01-25T07:25:23;102155.03;;;1.60;82.93
19114;BME280;9689;51.052;13.772;2023-01-25T07:30:25;102156.13;;;1.65;82.44
19114;BME280;9689;51.052;13.772;2023-01-25T07:35:26;102148.03;;;1.76;82.28
19114;BME280;9689;51.052;13.772;2023-01-25T07:40:27;102136.13;;;1.78;82.65
19114;BME280;9689;51.052;13.772;2023-01-25T07:45:29;102131.97;;;1.81;82.60
19114;BME280;9689;51.052;13.772;2023-01-25T07:50:30;102127.88;;;1.85;82.08
19114;BME280;9689;51.052;13.772;2023-01-25T07:55:31;102126.19;;;1.85;82.52
19114;BME280;9689;51.052;13.772;2023-01-25T08:00:33;102115.38;;;1.92;83.00
19114;BME280;9689;51.052;13.772;2023-01-25T08:05:34;102112.63;;;1.89;81.98
19114;BME280;9689;51.052;13.772;2023-01-25T08:10:37;102104.94;;;1.89;82.32
19114;BME280;9689;51.052;13.772;2023-01-25T08:15:39;102114.28;;;1.87;82.43
19114;BME280;9689;51.052;13.772;2023-01-25T08:20:39;102102.69;;;1.97;81.96
19114;BME280;9689;51.052;13.772;2023-01-25T08:25:40;102098.16;;;1.72;82.68
19114;BME280;9689;51.052;13.772;2023-01-25T08:30:42;102096.63;;;1.76;82.51
19114;BME280;9689;51.052;13.772;2023-01-25T08:35:55;102105.16;;;1.94;82.13
19114;BME280;9689;51.052;13.772;2023-01-25T08:41:03;102098.97;;;1.71;82.69
19114;BME280;9689;51.052;13.772;2023-01-25T08:46:05;102109.94;;;1.86;82.80
19114;BME280;9689;51.052;13.772;2023-01-25T08:51:07;102097.22;;;1.70;82.77
19114;BME280;9689;51.052;13.772;2023-01-25T08:56:09;102098.03;;;1.69;82.70
19114;BME280;9689;51.052;13.772;2023-01-25T09:01:13;102096.16;;;1.47;83.21
19114;BME280;9689;51.052;13.772;2023-01-25T09:06:15;102094.06;;;1.76;82.63
19114;BME280;9689;51.052;13.772;2023-01-25T09:11:18;102089.03;;;1.98;82.00
19114;BME280;9689;51.052;13.772;2023-01-25T09:16:22;102080.84;;;2.07;81.12
19114;BME280;9689;51.052;13.772;2023-01-25T09:21:28;102076.50;;;2.06;81.36
19114;BME280;9689;51.052;13.772;2023-01-25T09:26:29;102074.63;;;2.02;81.79
19114;BME280;9689;51.052;13.772;2023-01-25T09:31:32;102058.28;;;1.61;82.52
19114;BME280;9689;51.052;13.772;2023-01-25T09:36:41;102061.91;;;1.47;83.72
19114;BME280;9689;51.052;13.772;2023-01-25T09:42:00;102060.44;;;1.52;83.81
19114;BME280;9689;51.052;13.772;2023-01-25T09:47:20;102054.47;;;1.72;82.48
19114;BME280;9689;51.052;13.772;2023-01-25T09:52:40;102061.13;;;1.67;82.87
19114;BME280;9689;51.052;13.772;2023-01-25T09:57:50;102060.44;;;1.71;83.23
19114;BME280;9689;51.052;13.772;2023-01-25T10:02:57;102068.28;;;1.74;83.01
19114;BME280;9689;51.052;13.772;2023-01-25T10:08:02;102054.13;;;1.64;82.02
19114;BME280;9689;51.052;13.772;2023-01-25T10:13:08;102056.97;;;1.51;83.73
19114;BME280;9689;51.052;13.772;2023-01-25T10:18:19;102057.94;;;1.53;82.77
19114;BME280;9689;51.052;13.772;2023-01-25T10:23:36;102037.59;;;1.58;82.83
19114;BME280;9689;51.052;13.772;2023-01-25T10:28:44;102041.50;;;1.69;82.49
19114;BME280;9689;51.052;13.772;2023-01-25T10:33:48;102029.06;;;1.59;82.77
19114;BME280;9689;51.052;13.772;2023-01-25T10:38:49;102018.72;;;1.77;82.34
19114;BME280;9689;51.052;13.772;2023-01-25T10:43:56;102004.19;;;1.98;81.70
19114;BME280;9689;51.052;13.772;2023-01-25T10:49:19;102004.16;;;2.17;81.99
19114;BME280;9689;51.052;13.772;2023-01-25T10:54:22;101992.47;;;2.05;81.49
19114;BME280;9689;51.052;13.772;2023-01-25T10:59:24;101993.81;;;1.76;81.98
19114;BME280;9689;51.052;13.772;2023-01-25T11:04:33;101978.34;;;2.16;80.63
19114;BME280;9689;51.052;13.772;2023-01-25T11:09:36;101966.16;;;2.10;80.85
19114;BME280;9689;51.052;13.772;2023-01-25T11:14:37;101960.72;;;2.25;80.29
19114;BME280;9689;51.052;13.772;2023-01-25T11:19:39;101956.66;;;2.30;80.18
19114;BME280;9689;51.052;13.772;2023-01-25T11:24:40;101947.34;;;2.34;80.37
19114;BME280;9689;51.052;13.772;2023-01-25T11:29:41;101948.69;;;2.24;80.05
19114;BME280;9689;51.052;13.772;2023-01-25T11:34:47;101941.69;;;2.20;80.50
19114;BME280;9689;51.052;13.772;2023-01-25T11:39:56;101927.88;;;2.18;80.27
19114;BME280;9689;51.052;13.772;2023-01-25T11:45:29;101917.59;;;1.97;80.15
19114;BME280;9689;51.052;13.772;2023-01-25T11:50:39;101899.94;;;1.84;80.20
19114;BME280;9689;51.052;13.772;2023-01-25T11:55:48;101893.66;;;1.77;79.89
19114;BME280;9689;51.052;13.772;2023-01-25T12:01:03;101886.19;;;2.04;79.15
19114;BME280;9689;51.052;13.772;2023-01-25T12:06:12;101876.22;;;2.12;79.38
19114;BME280;9689;51.052;13.772;2023-01-25T12:11:23;101859.84;;;1.89;79.41
19114;BME280;9689;51.052;13.772;2023-01-25T12:16:36;101844.06;;;2.01;79.38
19114;BME280;9689;51.052;13.772;2023-01-25T12:21:58;101843.50;;;1.87;78.86
19114;BME280;9689;51.052;13.772;2023-01-25T12:27:14;101822.31;;;1.92;79.72
19114;BME280;9689;51.052;13.772;2023-01-25T12:32:22;101824.22;;;1.98;78.42
19114;BME280;9689;51.052;13.772;2023-01-25T12:37:29;101810.34;;;1.93;78.84
19114;BME280;9689;51.052;13.772;2023-01-25T12:42:35;101807.31;;;2.03;78.64
19114;BME280;9689;51.052;13.772;2023-01-25T12:47:41;101802.66;;;2.17;78.62
19114;BME280;9689;51.052;13.772;2023-01-25T12:52:48;101792.56;;;1.56;80.03
19114;BME280;9689;51.052;13.772;2023-01-25T12:57:56;101790.16;;;1.81;80.24
19114;BME280;9689;51.052;13.772;2023-01-25T13:03:06;101787.41;;;1.77;80.09
19114;BME280;9689;51.052;13.772;2023-01-25T13:08:21;101777.59;;;1.89;79.99
19114;BME280;9689;51.052;13.772;2023-01-25T13:13:30;101771.59;;;1.88;79.00
19114;BME280;9689;51.052;13.772;2023-01-25T13:18:38;101763.84;;;2.09;78.14
19114;BME280;9689;51.052;13.772;2023-01-25T13:23:42;101757.00;;;2.10;78.61
19114;BME280;9689;51.052;13.772;2023-01-25T13:28:46;101758.91;;;2.15;77.83
19114;BME280;9689;51.052;13.772;2023-01-25T13:33:47;101748.13;;;2.02;78.35
19114;BME280;9689;51.052;13.772;2023-01-25T13:38:49;101735.00;;;2.18;77.54
19114;BME280;9689;51.052;13.772;2023-01-25T13:44:07;101731.22;;;2.32;77.08
19114;BME280;9689;51.052;13.772;2023-01-25T13:49:20;101726.22;;;2.35;77.83
19114;BME280;9689;51.052;13.772;2023-01-25T13:54:23;101716.94;;;2.40;77.44
19114;BME280;9689;51.052;13.772;2023-01-25T13:59:26;101711.31;;;2.26;76.97
19114;BME280;9689;51.052;13.772;2023-01-25T14:04:27;101703.81;;;2.33;76.32
19114;BME280;9689;51.052;13.772;2023-01-25T14:09:30;101693.47;;;2.31;76.38
19114;BME280;9689;51.052;13.772;2023-01-25T14:14:32;101685.13;;;2.37;76.32
19114;BME280;9689;51.052;13.772;2023-01-25T14:19:35;101682.53;;;2.37;76.40
19114;BME280;9689;51.052;13.772;2023-01-25T14:24:38;101683.19;;;2.31;76.63
19114;BME280;9689;51.052;13.772;2023-01-25T14:29:39;101677.16;;;2.31;76.63
19114;BME280;9689;51.052;13.772;2023-01-25T14:34:40;101675.53;;;2.33;76.83
19114;BME280;9689;51.052;13.772;2023-01-25T14:39:43;101679.47;;;2.23;76.83
19114;BME280;9689;51.052;13.772;2023-01-25T14:44:45;101657.72;;;2.15;77.13
19114;BME280;9689;51.052;13.772;2023-01-25T14:49:46;101657.88;;;2.18;77.11
19114;BME280;9689;51.052;13.772;2023-01-25T14:54:51;101654.84;;;2.06;77.91
19114;BME280;9689;51.052;13.772;2023-01-25T14:59:53;101641.50;;;1.92;78.98
19114;BME280;9689;51.052;13.772;2023-01-25T15:04:56;101647.72;;;1.98;78.79
19114;BME280;9689;51.052;13.772;2023-01-25T15:10:19;101633.00;;;1.94;79.11
19114;BME280;9689;51.052;13.772;2023-01-25T15:15:21;101616.34;;;1.83;79.46
19114;BME280;9689;51.052;13.772;2023-01-25T15:20:34;101612.56;;;1.97;78.96
19114;BME280;9689;51.052;13.772;2023-01-25T15:25:49;101600.53;;;1.96;79.90
19114;BME280;9689;51.052;13.772;2023-01-25T15:30:50;101592.94;;;1.76;80.29
19114;BME280;9689;51.052;13.772;2023-01-25T15:35:53;101582.16;;;1.86;80.31
19114;BME280;9689;51.052;13.772;2023-01-25T15:40:55;101580.06;;;1.76;80.07
19114;BME280;9689;51.052;13.772;2023-01-25T15:45:59;101587.06;;;1.80;80.77
19114;BME280;9689;51.052;13.772;2023-01-25T15:51:00;101568.97;;;1.77;80.90
19114;BME280;9689;51.052;13.772;2023-01-25T15:56:05;101563.78;;;1.75;81.19
19114;BME280;9689;51.052;13.772;2023-01-25T16:01:06;101553.59;;;1.78;81.15
19114;BME280;9689;51.052;13.772;2023-01-25T16:06:20;101553.91;;;1.63;81.43
19114;BME280;9689;51.052;13.772;2023-01-25T16:11:26;101547.28;;;1.68;81.75
19114;BME280;9689;51.052;13.772;2023-01-25T16:16:27;101546.63;;;1.74;81.26
19114;BME280;9689;51.052;13.772;2023-01-25T16:21:28;101548.22;;;1.72;81.37
19114;BME280;9689;51.052;13.772;2023-01-25T16:26:30;101538.97;;;1.76;82.08
19114;BME280;9689;51.052;13.772;2023-01-25T16:31:31;101533.97;;;1.80;81.62
19114;BME280;9689;51.052;13.772;2023-01-25T16:36:33;101518.78;;;1.86;81.27
19114;BME280;9689;51.052;13.772;2023-01-25T16:41:35;101498.25;;;1.88;81.30
19114;BME280;9689;51.052;13.772;2023-01-25T16:46:37;101496.69;;;1.91;81.51
19114;BME280;9689;51.052;13.772;2023-01-25T16:51:38;101491.47;;;1.90;81.38
19114;BME280;9689;51.052;13.772;2023-01-25T16:56:40;101496.00;;;1.97;81.38
19114;BME280;9689;51.052;13.772;2023-01-25T17:01:41;101490.72;;;1.92;81.59
19114;BME280;9689;51.052;13.772;2023-01-25T17:06:44;101487.41;;;1.96;81.55
19114;BME280;9689;51.052;13.772;2023-01-25T17:11:46;101478.88;;;1.97;81.80
19114;BME280;9689;51.052;13.772;2023-01-25T17:16:47;101473.06;;;2.55;85.63
19114;BME280;9689;51.052;13.772;2023-01-25T17:21:50;101464.75;;;2.10;81.64
19114;BME280;9689;51.052;13.772;2023-01-25T17:26:54;101459.22;;;1.99;82.05
19114;BME280;9689;51.052;13.772;2023-01-25T17:31:55;101461.81;;;1.99;81.89
19114;BME280;9689;51.052;13.772;2023-01-25T17:36:56;101445.31;;;1.93;82.12
19114;BME280;9689;51.052;13.772;2023-01-25T17:41:58;101437.56;;;1.91;81.90
19114;BME280;9689;51.052;13.772;2023-01-25T17:46:59;101440.13;;;1.91;81.52
19114;BME280;9689;51.052;13.772;2023-01-25T17:52:00;101445.41;;;1.96;81.28
19114;BME280;9689;51.052;13.772;2023-01-25T17:57:02;101430.72;;;1.92;81.17
19114;BME280;9689;51.052;13.772;2023-01-25T18:02:03;101432.34;;;1.90;81.92
19114;BME280;9689;51.052;13.772;2023-01-25T18:07:04;101428.19;;;1.93;81.48
19114;BME280;9689;51.052;13.772;2023-01-25T18:12:06;101428.16;;;1.92;81.89
19114;BME280;9689;51.052;13.772;2023-01-25T18:17:07;101418.78;;;1.94;81.78
19114;BME280;9689;51.052;13.772;2023-01-25T18:22:08;101410.88;;;1.88;81.69
19114;BME280;9689;51.052;13.772;2023-01-25T18:27:17;101412.81;;;1.95;80.95
19114;BME280;9689;51.052;13.772;2023-01-25T18:32:19;101405.19;;;1.98;81.53
19114;BME280;9689;51.052;13.772;2023-01-25T18:37:20;101403.63;;;2.02;81.47
19114;BME280;9689;51.052;13.772;2023-01-25T18:42:24;101396.44;;;1.91;80.74
19114;BME280;9689;51.052;13.772;2023-01-25T18:47:25;101407.91;;;2.01;80.23
19114;BME280;9689;51.052;13.772;2023-01-25T18:52:26;101392.59;;;2.06;80.41
19114;BME280;9689;51.052;13.772;2023-01-25T18:57:28;101392.88;;;2.15;80.20
19114;BME280;9689;51.052;13.772;2023-01-25T19:02:29;101379.69;;;2.04;80.56
19114;BME280;9689;51.052;13.772;2023-01-25T19:07:30;101364.06;;;1.98;80.68
19114;BME280;9689;51.052;13.772;2023-01-25T19:12:33;101358.63;;;1.89;81.12
19114;BME280;9689;51.052;13.772;2023-01-25T19:17:33;101354.75;;;2.00;81.01
19114;BME280;9689;51.052;13.772;2023-01-25T19:22:34;101351.38;;;2.03;80.78
19114;BME280;9689;51.052;13.772;2023-01-25T19:27:36;101340.19;;;2.01;80.96
19114;BME280;9689;51.052;13.772;2023-01-25T19:32:37;101324.84;;;2.04;80.98
19114;BME280;9689;51.052;13.772;2023-01-25T19:37:38;101318.25;;;1.85;81.27
19114;BME280;9689;51.052;13.772;2023-01-25T19:42:40;101319.56;;;1.72;81.50
19114;BME280;9689;51.052;13.772;2023-01-25T19:47:40;101310.34;;;1.79;80.79
19114;BME280;9689;51.052;13.772;2023-01-25T19:52:41;101301.72;;;1.77;80.43
19114;BME280;9689;51.052;13.772;2023-01-25T19:57:44;101313.84;;;1.81;80.26
19114;BME280;9689;51.052;13.772;2023-01-25T20:02:45;101309.84;;;1.90;80.10
19114;BME280;9689;51.052;13.772;2023-01-25T20:07:46;101303.38;;;2.02;80.05
19114;BME280;9689;51.052;13.772;2023-01-25T20:12:48;101299.72;;;1.95;80.28
19114;BME280;9689;51.052;13.772;2023-01-25T20:17:49;101301.44;;;1.94;79.59
19114;BME280;9689;51.052;13.772;2023-01-25T20:22:51;101301.34;;;1.91;80.14
19114;BME280;9689;51.052;13.772;2023-01-25T20:27:54;101291.84;;;1.90;80.44
19114;BME280;9689;51.052;13.772;2023-01-25T20:32:54;101302.34;;;1.96;80.55
19114;BME280;9689;51.052;13.772;2023-01-25T20:37:55;101283.44;;;1.94;80.91
19114;BME280;9689;51.052;13.772;2023-01-25T20:42:57;101273.06;;;1.91;80.78
19114;BME280;9689;51.052;13.772;2023-01-25T20:47:58;101273.97;;;1.93;80.70
19114;BME280;9689;51.052;13.772;2023-01-25T20:52:58;101259.16;;;1.85;80.81
19114;BME280;9689;51.052;13.772;2023-01-25T20:58:00;101249.16;;;1.94;80.89
19114;BME280;9689;51.052;13.772;2023-01-25T21:03:01;101240.81;;;2.01;80.82
19114;BME280;9689;51.052;13.772;2023-01-25T21:08:02;101235.31;;;1.90;80.78
19114;BME280;9689;51.052;13.772;2023-01-25T21:13:05;101241.53;;;1.97;80.50
19114;BME280;9689;51.052;13.772;2023-01-25T21:18:05;101230.28;;;1.93;80.61
19114;BME280;9689;51.052;13.772;2023-01-25T21:23:06;101233.69;;;1.92;81.34
19114;BME280;9689;51.052;13.772;2023-01-25T21:28:08;101219.50;;;1.77;81.14
19114;BME280;9689;51.052;13.772;2023-01-25T21:33:09;101218.66;;;1.78;81.44
19114;BME280;9689;51.052;13.772;2023-01-25T21:38:09;101218.59;;;1.75;81.87
19114;BME280;9689;51.052;13.772;2023-01-25T21:43:12;101209.09;;;1.74;81.93
19114;BME280;9689;51.052;13.772;2023-01-25T21:48:12;101203.00;;;1.70;82.34
19114;BME280;9689;51.052;13.772;2023-01-25T21:53:33;101202.97;;;1.68;82.28
19114;BME280;9689;51.052;13.772;2023-01-25T21:58:35;101195.31;;;1.70;82.52
19114;BME280;9689;51.052;13.772;2023-01-25T22:03:36;101213.88;;;1.90;81.65
19114;BME280;9689;51.052;13.772;2023-01-25T22:08:38;101203.28;;;1.79;82.12
19114;BME280;9689;51.052;13.772;2023-01-25T22:13:40;101206.31;;;1.94;82.18
19114;BME280;9689;51.052;13.772;2023-01-25T22:18:42;101203.72;;;1.93;81.88
19114;BME280;9689;51.052;13.772;2023-01-25T22:23:43;101197.44;;;1.83;82.63
19114;BME280;9689;51.052;13.772;2023-01-25T22:28:47;101180.44;;;1.60;82.72
19114;BME280;9689;51.052;13.772;2023-01-25T22:33:49;101177.97;;;1.63;83.04
19114;BME280;9689;51.052;13.772;2023-01-25T22:38:51;101168.06;;;1.75;82.10
19114;BME280;9689;51.052;13.772;2023-01-25T22:43:53;101169.22;;;1.85;82.26
19114;BME280;9689;51.052;13.772;2023-01-25T22:48:54;101170.53;;;1.72;82.10
19114;BME280;9689;51.052;13.772;2023-01-25T22:53:56;101167.69;;;1.63;82.38
19114;BME280;9689;51.052;13.772;2023-01-25T22:58:59;101160.03;;;1.64;82.85
19114;BME280;9689;51.052;13.772;2023-01-25T23:04:00;101149.00;;;1.67;82.90
19114;BME280;9689;51.052;13.772;2023-01-25T23:09:04;101141.53;;;1.76;82.69
19114;BME280;9689;51.052;13.772;2023-01-25T23:14:09;101142.59;;;1.83;82.21
19114;BME280;9689;51.052;13.772;2023-01-25T23:19:40;101142.91;;;1.65;82.77
19114;BME280;9689;51.052;13.772;2023-01-25T23:24:40;101129.88;;;1.87;82.23
19114;BME280;9689;51.052;13.772;2023-01-25T23:29:43;101118.41;;;1.76;81.96
19114;BME280;9689;51.052;13.772;2023-01-25T23:34:43;101106.25;;;1.70;82.21
19114;BME280;9689;51.052;13.772;2023-01-25T23:39:44;101098.13;;;1.85;81.87
19114;BME280;9689;51.052;13.772;2023-01-25T23:44:46;101097.50;;;1.64;81.94
19114;BME280;9689;51.052;13.772;2023-01-25T23:49:47;101096.31;;;1.53;82.39
19114;BME280;9689;51.052;13.772;2023-01-25T23:54:47;101080.78;;;1.48;82.52
19114;BME280;9689;51.052;13.772;2023-01-25T23:59:49;101097.72;;;1.41;82.85
